Latest Coastal Weather Observations for Taree Airport

IDN60701

Issued at 10:02 pm EDT Monday 27 February 2017 (issued every 10 minutes, with the page automatically refreshed every 10 minutes)

About coastal observations | Map of coastal stations | Coastal observations for NSW | Marine services | Other Formats
Station Details ID: 060141 Name: TAREE AIRPORT AWS Lat: -31.89 Lon: 152.51 Height: 8.0 m
Data from the previous 72 hours. | See also: Recent months at Taree Airport
Date/Time
EDT
Temp
°C
Wind Pressure Rain since
9am
mm
Weather Cloud Vis
km
Sea
Height
m
Swell
Dir  Spd
kts
Gust
kts
hPa Trend Height
m
Period
s
Dir
27/09:30pm 20.6 SW 1 5 1020.8 - 0.6 - Partly cloudy - - - - -
27/09:00pm 21.5 WSW 4 5 1020.6 - 0.6 Recent precip. Cloudy - - - - -
27/08:30pm 21.8 W 4 6 1020.5 - 0.6 - Partly cloudy - - - - -
27/08:00pm 21.8 SW 5 6 1020.2 - 0.4 - Partly cloudy - - - - -
27/07:30pm 22.1 WSW 5 6 1020.1 - 0.4 - Partly cloudy - - - - -
27/07:00pm 22.6 SW 6 8 1019.9 - 0.4 - Partly cloudy - - - - -
27/06:30pm 22.8 SSW 7 9 1019.8 - 0.4 - Partly cloudy - - - - -
27/06:00pm 22.9 SSW 8 10 1019.6 - 0.4 - - - - - - -
27/05:30pm 22.9 S 13 18 1019.4 - 0.4 - - - - - - -
27/05:00pm 23.4 S 11 15 1019.3 - 0.4 - - - - - - -
27/04:30pm 23.4 SSW 14 21 1019.3 - 0.4 - Partly cloudy - - - - -
27/04:00pm 24.0 S 14 19 1019.0 - 0.4 - Partly cloudy - - - - -
27/03:30pm 24.5 SE 13 18 1019.2 - 0.4 - Partly cloudy - - - - -
27/03:00pm 25.0 SE 10 14 1019.6 - 0.4 - Partly cloudy - - - - -
27/02:30pm 25.5 S 12 16 1019.6 - 0.4 - Partly cloudy - - - - -
27/02:00pm 24.3 SSE 10 14 1020.2 - 0.4 - Partly cloudy - - - - -
27/01:30pm 23.3 SSE 8 10 1020.6 - 0.4 - Partly cloudy - - - - -
27/01:00pm 22.8 S 10 14 1020.9 - 0.4 - Partly cloudy - - - - -
27/12:30pm 22.8 SSE 8 13 1021.2 - 0.4 - Partly cloudy - - - - -
27/12:00pm 22.8 SSE 8 12 1021.3 - 0.4 Recent precip. Mostly cloudy - - - - -
27/11:30am 22.4 S 7 9 1021.0 - 0.4 - Partly cloudy - - - - -
27/11:00am 23.0 SW 4 5 1021.3 - 0.0 - Partly cloudy - - - - -
27/10:30am 23.1 W 5 9 1021.5 - 0.0 - Partly cloudy - - - - -
27/10:00am 21.9 WSW 6 8 1020.9 - 0.0 - Partly cloudy - - - - -
27/09:30am 20.5 W 6 8 1021.1 - 0.0 - Partly cloudy - - - - -
27/09:00am 19.4 W 5 6 1021.1 - 5.0 Recent precip. Mostly clear - - - - -
27/08:30am 19.1 WNW 4 6 1020.7 - 5.0 - Partly cloudy - - - - -
27/08:24am 19.2 NNW 2 6 1020.8 - 5.0 - Partly cloudy - - - - -
27/08:14am 19.3 NNW 1 4 1020.9 - 5.0 - Partly cloudy - - - - -
27/08:00am 19.2 NNW 2 4 1021.2 - 2.8 - Partly cloudy - - - - -
27/07:30am 19.0 WNW 5 7 1020.4 - 2.4 - Partly cloudy - - - - -
27/07:00am 18.9 WNW 6 7 1020.1 - 2.4 - Partly cloudy - - - - -
27/06:30am 18.8 NW 5 6 1019.9 - 2.4 - Partly cloudy - - - - -
27/06:00am 18.8 WNW 6 7 1019.3 - 2.4 Recent precip. Cloudy - - - - -
27/05:30am 18.8 WSW 6 8 1018.9 - 2.4 - Partly cloudy - - - - -
27/05:00am 18.6 WNW 5 6 1019.0 - 2.2 - Partly cloudy - - - - -
27/04:30am 18.9 WSW 5 7 1018.9 - 2.2 - Partly cloudy - - - - -
27/04:00am 18.9 W 6 8 1019.3 - 1.4 - Partly cloudy - - - - -
27/03:30am 19.1 WSW 6 7 1019.5 - 1.4 - Partly cloudy - - - - -
27/03:00am 18.9 NW 5 6 1019.4 - 1.4 - Partly cloudy - - - - -
27/02:30am 19.0 W 4 6 1019.6 - 1.4 - Partly cloudy - - - - -
27/02:00am 18.9 WNW 6 8 1019.4 - 1.4 - - - - - - -
27/01:30am 19.0 W 6 8 1019.5 - 1.4 - Partly cloudy - - - - -
27/01:00am 19.2 W 7 8 1019.9 - 1.4 - Partly cloudy - - - - -
27/12:30am 19.3 W 7 9 1020.1 - 1.4 - Partly cloudy - - - - -
27/12:00am 19.3 W 7 9 1020.2 - 1.4 - Partly cloudy - - - - -
 
Date/Time
EDT
Temp
°C
Wind Pressure Rain since
9am
mm
Weather Cloud Vis
km
Sea
Height
m
Swell
Dir  Spd
kts
Gust
kts
hPa Trend Height
m
Period
s
Dir
26/11:30pm 19.4 W 7 8 1020.8 - 1.4 - Partly cloudy - - - - -
26/11:00pm 19.3 W 7 8 1020.6 - 1.4 - - - - - - -
26/10:30pm 19.5 W 6 8 1020.7 - 1.4 - - - - - - -
26/10:00pm 19.7 W 7 8 1020.4 - 1.4 - - - - - - -
26/09:30pm 20.0 W 6 7 1020.6 - 1.4 - - - - - - -
26/09:00pm 20.6 W 5 8 1020.7 - 1.4 - - - - - - -
26/08:30pm 21.0 SW 6 8 1020.3 - 1.4 - Partly cloudy - - - - -
26/08:00pm 21.4 WSW 6 8 1020.1 - 1.4 - - - - - - -
26/07:30pm 22.0 S 8 11 1019.7 - 1.4 - Partly cloudy - - - - -
26/07:00pm 22.7 S 9 13 1019.4 - 1.4 - Partly cloudy - - - - -
26/06:30pm 22.7 S 10 14 1019.1 - 1.4 - Partly cloudy - - - - -
26/06:00pm 23.4 S 13 17 1018.8 - 1.4 Recent precip. Mostly clear - - - - -
26/05:30pm 23.5 SSE 12 17 1018.7 - 1.4 - Partly cloudy - - - - -
26/05:00pm 23.6 SSE 10 15 1018.7 - 1.2 - Partly cloudy - - - - -
26/04:30pm 23.4 SSW 7 10 1018.8 - 1.0 - Partly cloudy - - - - -
26/04:00pm 24.0 SW 9 12 1018.8 - 1.0 - Partly cloudy - - - - -
26/03:30pm 23.0 SW 8 11 1019.0 - 1.0 - Partly cloudy - - - - -
26/03:00pm 23.0 SW 11 15 1019.1 - 1.0 - Partly cloudy - - - - -
26/02:30pm 22.6 SW 10 14 1019.5 - 1.0 - Partly cloudy - - - - -
26/02:00pm 21.8 WSW 6 8 1019.8 - 1.0 - Partly cloudy - - - - -
26/01:30pm 21.0 W 7 9 1020.0 - 1.0 - Partly cloudy - - - - -
26/01:00pm 21.0 W 6 7 1020.2 - 1.0 - Partly cloudy - - - - -
26/12:30pm 20.5 NW 7 8 1020.1 - 1.0 - Partly cloudy - - - - -
26/12:00pm 19.9 WNW 7 10 1020.3 - 1.0 Rain Cloudy - - - - -
26/11:30am 19.6 WSW 6 7 1020.5 - 0.2 - Partly cloudy - - - - -
26/11:00am 19.6 NW 8 10 1020.2 - 0.0 - Partly cloudy - - - - -
26/10:30am 19.5 NW 9 11 1020.1 - 0.0 - Partly cloudy - - - - -
26/10:00am 19.3 NW 8 10 1019.9 - 0.0 - Partly cloudy - - - - -
26/09:30am 19.6 NNW 5 8 1019.8 - 0.0 - Partly cloudy - - - - -
26/09:18am 19.6 NW 7 9 1019.6 - 0.0 - Partly cloudy - - - - -
26/09:08am 19.5 NNW 6 10 1019.4 - 0.0 - Partly cloudy - - - - -
26/09:05am 19.6 NNW 6 10 1019.3 - 0.0 - Partly cloudy - - - - -
26/09:00am 19.6 NNW 5 10 1019.2 - 19.6 Rain Cloudy - - - - -
26/08:53am 19.7 N 5 8 1019.4 - 19.2 - Partly cloudy - - - - -
26/08:30am 20.4 NW 5 7 1019.0 - 18.4 - Partly cloudy - - - - -
26/08:00am 20.4 SSE 4 5 1018.9 - 18.4 - Partly cloudy - - - - -
26/07:30am 19.8 NNE 5 6 1018.5 - 14.8 - Partly cloudy - - - - -
26/07:00am 20.4 WSW 4 5 1018.2 - 14.8 - Partly cloudy - - - - -
26/06:30am 20.3 SSW 4 5 1017.7 - 14.8 - Partly cloudy - - - - -
26/06:00am 20.3 SSE 5 6 1017.4 - 14.8 - Cloudy - - - - -
26/05:30am 20.3 S 6 7 1016.7 - 14.8 - Partly cloudy - - - - -
26/05:00am 20.0 W 1 4 1016.8 - 14.8 - Partly cloudy - - - - -
26/04:30am 19.9 WNW 5 8 1016.7 - 14.8 - Partly cloudy - - - - -
26/04:00am 19.8 WNW 5 7 1016.6 - 14.8 - Partly cloudy - - - - -
26/03:30am 20.1 ESE 1 4 1016.8 - 14.8 - Partly cloudy - - - - -
26/03:00am 19.8 WNW 7 8 1017.0 - 14.8 Rain Mostly cloudy - - - - -
26/02:30am 20.0 W 7 9 1017.5 - 6.4 - Partly cloudy - - - - -
26/02:00am 20.8 W 6 8 1017.7 - 0.0 - Partly cloudy - - - - -
26/01:30am 20.6 SSW 7 9 1017.8 - 0.0 - Partly cloudy - - - - -
26/01:00am 21.3 SSW 7 9 1018.0 - 0.0 - Partly cloudy - - - - -
26/12:30am 21.7 SW 5 6 1018.0 - 0.0 - Partly cloudy - - - - -
26/12:00am 21.8 WSW 5 6 1018.1 - 0.0 - Cloudy - - - - -
 
Date/Time
EDT
Temp
°C
Wind Pressure Rain since
9am
mm
Weather Cloud Vis
km
Sea
Height
m
Swell
Dir  Spd
kts
Gust
kts
hPa Trend Height
m
Period
s
Dir
25/11:30pm 22.3 S 5 6 1018.2 - 0.0 - Partly cloudy - - - - -
25/11:00pm 22.2 SSE 3 4 1018.2 - 0.0 - Partly cloudy 10 - - - -
25/10:30pm 22.7 SSE 5 6 1018.0 - 0.0 - Partly cloudy 10 - - - -
25/10:00pm 22.9 S 6 7 1018.4 - 0.0 - Cloudy 10 - - - -
25/09:30pm 23.0 S 6 8 1018.3 - 0.0 - Cloudy 10 - - - -
25/09:00pm 23.1 SSE 6 7 1018.0 - 0.0 Recent precip. Cloudy 10 - - - -
25/08:30pm 23.2 SSE 7 9 1018.1 - 0.0 - Partly cloudy 10 - - - -
25/08:00pm 23.4 S 8 9 1017.7 - 0.0 - Partly cloudy 10 - - - -
25/07:30pm 23.7 S 7 10 1017.4 - 0.0 - Partly cloudy 10 - - - -
25/07:00pm 24.3 SSE 9 13 1017.1 - 0.0 - Partly cloudy 10 - - - -
25/06:30pm 24.7 SE 10 15 1016.7 - 0.0 - Partly cloudy 10 - - - -
25/06:00pm 24.6 SE 10 12 1016.6 - 0.0 - - 10 - - - -
25/05:30pm 24.6 SE 9 14 1016.7 - 0.0 - - 10 - - - -
25/05:00pm 25.8 SE 13 18 1016.4 - 0.0 - - 10 - - - -
25/04:30pm 26.2 SE 13 17 1016.4 - 0.0 - Partly cloudy 10 - - - -
25/04:00pm 26.0 ESE 11 17 1016.5 - 0.0 - - 10 - - - -
25/03:30pm 26.4 SE 12 16 1016.7 - 0.0 - - 10 - - - -
25/03:00pm 26.1 SE 12 17 1016.9 - 0.0 - Mostly clear 10 - - - -
25/02:30pm 26.7 SE 11 16 1017.1 - 0.0 - Partly cloudy 10 - - - -
25/02:00pm 26.4 ESE 10 15 1017.2 - 0.0 - Partly cloudy 10 - - - -
25/01:30pm 26.7 SE 8 11 1017.6 - 0.0 - Partly cloudy 10 - - - -
25/01:00pm 26.7 WSW 3 8 1017.8 - 0.0 - Partly cloudy 10 - - - -
25/12:30pm 26.5 SE 6 8 1018.0 - 0.0 - Partly cloudy 10 - - - -
25/12:00pm 27.1 SW 6 10 1018.2 - 0.0 - Cloudy 10 - - - -
25/11:30am 26.8 NE 4 6 1018.5 - 0.0 - Partly cloudy 10 - - - -
25/11:00am 25.5 S 4 7 1018.6 - 0.0 - Cloudy 10 - - - -
25/10:30am 26.0 S 5 10 1018.6 - 0.0 - Cloudy 10 - - - -
25/10:00am 25.4 SW 4 7 1018.7 - 0.0 - - - - - - -
25/09:30am 24.2 WSW 5 7 1018.8 - 0.0 - - - - - - -
25/09:00am 23.5 W 4 6 1018.8 - 0.0 - - - - - - -
25/08:30am 21.9 WNW 6 7 1018.7 - 0.0 - - - - - - -
25/08:00am 20.7 NW 5 6 1018.6 - 0.0 - - - - - - -
25/07:30am 19.2 NW 4 4 1018.4 - 0.0 - - - - - - -
25/07:00am 17.8 NW 3 4 1018.2 - 0.0 - - - - - - -
25/06:30am 18.3 NW 5 6 1018.0 - 0.0 - - - - - - -
25/06:00am 18.2 CALM 0 0 1018.0 - 0.0 - - - - - - -
25/05:30am 18.1 CALM 0 0 1017.9 - 0.0 - - - - - - -
25/05:00am 18.9 SSE 4 5 1017.8 - 0.0 - - - - - - -
25/04:30am 19.5 SSE 4 4 1017.6 - 0.0 - - - - - - -
25/04:00am 19.5 CALM 0 0 1017.6 - 0.0 - - - - - - -
25/03:30am 20.7 CALM 0 0 1017.5 - 0.0 - - - - - - -
25/03:00am 21.4 SSE 4 5 1017.7 - 0.0 - Mostly cloudy - - - - -
25/02:30am 21.8 SE 1 4 1017.8 - 0.0 - Partly cloudy - - - - -
25/02:00am 21.8 SE 4 5 1018.0 - 0.0 - Partly cloudy - - - - -
25/01:30am 21.6 ESE 3 4 1018.1 - 0.0 - Cloudy - - - - -
25/01:00am 21.7 ESE 3 4 1018.2 - 0.0 - Cloudy - - - - -
25/12:30am 21.4 CALM 0 0 1018.3 - 0.0 - Cloudy - - - - -
25/12:00am 21.1 E 1 4 1018.5 - 0.0 - Cloudy 10 - - - -
 
Date/Time
EDT
Temp
°C
Wind Pressure Rain since
9am
mm
Weather Cloud Vis
km
Sea
Height
m
Swell
Dir  Spd
kts
Gust
kts
hPa Trend Height
m
Period
s
Dir
24/11:30pm 20.0 CALM 0 0 1018.6 - 0.0 - Partly cloudy 10 - - - -
24/11:00pm 20.1 ENE 3 4 1018.5 - 0.0 - - 10 - - - -
24/10:30pm 20.1 ENE 4 5 1018.6 - 0.0 - - 10 - - - -

Other Formats:

Comma delimited format used in spreadsheet applications
http://www.bom.gov.au/fwo/IDN60701/IDN60701.95784.axf

JavaScript Object Notation format (JSON) in row-major order
http://www.bom.gov.au/fwo/IDN60701/IDN60701.95784.json